sensor_id;sensor_type;location;lat;lon;timestamp;temperature;humidity
14283;DHT22;7225;59.282;18.344;2023-06-14T00:01:48;15.10;99.80
14283;DHT22;7225;59.282;18.344;2023-06-14T00:04:15;15.20;99.70
14283;DHT22;7225;59.282;18.344;2023-06-14T00:06:47;15.30;99.90
14283;DHT22;7225;59.282;18.344;2023-06-14T00:09:17;15.50;99.80
14283;DHT22;7225;59.282;18.344;2023-06-14T00:11:44;15.60;99.90
14283;DHT22;7225;59.282;18.344;2023-06-14T00:14:11;15.60;99.90
14283;DHT22;7225;59.282;18.344;2023-06-14T00:16:40;15.70;99.90
14283;DHT22;7225;59.282;18.344;2023-06-14T00:19:09;15.70;99.90
14283;DHT22;7225;59.282;18.344;2023-06-14T00:21:38;15.70;99.80
14283;DHT22;7225;59.282;18.344;2023-06-14T00:24:05;15.70;99.40
14283;DHT22;7225;59.282;18.344;2023-06-14T00:26:32;15.70;99.70
14283;DHT22;7225;59.282;18.344;2023-06-14T00:28:59;15.70;99.60
14283;DHT22;7225;59.282;18.344;2023-06-14T00:31:26;15.70;99.50
14283;DHT22;7225;59.282;18.344;2023-06-14T00:33:53;15.80;99.70
14283;DHT22;7225;59.282;18.344;2023-06-14T00:36:20;15.80;99.70
14283;DHT22;7225;59.282;18.344;2023-06-14T00:38:47;15.80;99.80
14283;DHT22;7225;59.282;18.344;2023-06-14T00:41:14;15.80;99.90
14283;DHT22;7225;59.282;18.344;2023-06-14T00:43:41;15.80;99.90
14283;DHT22;7225;59.282;18.344;2023-06-14T00:46:08;15.80;99.80
14283;DHT22;7225;59.282;18.344;2023-06-14T00:48:36;15.50;99.90
14283;DHT22;7225;59.282;18.344;2023-06-14T00:51:03;15.50;99.90
14283;DHT22;7225;59.282;18.344;2023-06-14T00:53:31;15.40;99.90
14283;DHT22;7225;59.282;18.344;2023-06-14T00:56:01;15.30;99.90
14283;DHT22;7225;59.282;18.344;2023-06-14T00:58:28;15.30;99.90
14283;DHT22;7225;59.282;18.344;2023-06-14T01:00:56;15.30;99.90
14283;DHT22;7225;59.282;18.344;2023-06-14T01:03:23;15.20;99.90
14283;DHT22;7225;59.282;18.344;2023-06-14T01:05:56;15.10;99.90
14283;DHT22;7225;59.282;18.344;2023-06-14T01:08:46;15.00;99.90
14283;DHT22;7225;59.282;18.344;2023-06-14T01:11:28;15.00;99.90
14283;DHT22;7225;59.282;18.344;2023-06-14T01:14:00;15.10;99.90
14283;DHT22;7225;59.282;18.344;2023-06-14T01:16:29;15.10;99.90
14283;DHT22;7225;59.282;18.344;2023-06-14T01:18:58;15.10;99.90
14283;DHT22;7225;59.282;18.344;2023-06-14T01:21:26;15.00;99.90
14283;DHT22;7225;59.282;18.344;2023-06-14T01:23:55;15.00;99.90
14283;DHT22;7225;59.282;18.344;2023-06-14T01:26:23;15.10;99.90
14283;DHT22;7225;59.282;18.344;2023-06-14T01:28:50;15.10;99.90
14283;DHT22;7225;59.282;18.344;2023-06-14T01:31:20;15.10;99.90
14283;DHT22;7225;59.282;18.344;2023-06-14T01:33:51;15.00;99.90
14283;DHT22;7225;59.282;18.344;2023-06-14T01:36:19;14.90;99.90
14283;DHT22;7225;59.282;18.344;2023-06-14T01:38:48;14.90;99.90
14283;DHT22;7225;59.282;18.344;2023-06-14T01:41:18;14.90;99.90
14283;DHT22;7225;59.282;18.344;2023-06-14T01:43:48;14.90;99.90
14283;DHT22;7225;59.282;18.344;2023-06-14T01:46:16;14.90;99.90
14283;DHT22;7225;59.282;18.344;2023-06-14T01:48:44;14.90;99.90
14283;DHT22;7225;59.282;18.344;2023-06-14T01:51:11;15.00;99.90
14283;DHT22;7225;59.282;18.344;2023-06-14T01:53:38;15.00;99.90
14283;DHT22;7225;59.282;18.344;2023-06-14T01:56:05;14.90;99.90
14283;DHT22;7225;59.282;18.344;2023-06-14T01:58:33;14.90;99.90
14283;DHT22;7225;59.282;18.344;2023-06-14T02:01:00;15.00;99.90
14283;DHT22;7225;59.282;18.344;2023-06-14T02:03:27;15.10;99.90
14283;DHT22;7225;59.282;18.344;2023-06-14T02:05:54;15.10;99.90
14283;DHT22;7225;59.282;18.344;2023-06-14T02:08:22;15.10;99.90
14283;DHT22;7225;59.282;18.344;2023-06-14T02:10:50;15.10;99.90
14283;DHT22;7225;59.282;18.344;2023-06-14T02:13:18;15.20;99.90
14283;DHT22;7225;59.282;18.344;2023-06-14T02:15:45;15.20;99.90
14283;DHT22;7225;59.282;18.344;2023-06-14T02:18:13;15.30;99.90
14283;DHT22;7225;59.282;18.344;2023-06-14T02:20:40;15.20;99.90
14283;DHT22;7225;59.282;18.344;2023-06-14T02:23:07;15.20;99.90
14283;DHT22;7225;59.282;18.344;2023-06-14T02:25:34;15.30;99.90
14283;DHT22;7225;59.282;18.344;2023-06-14T02:28:02;15.40;99.90
14283;DHT22;7225;59.282;18.344;2023-06-14T02:30:29;15.40;99.90
14283;DHT22;7225;59.282;18.344;2023-06-14T02:32:56;15.50;99.90
14283;DHT22;7225;59.282;18.344;2023-06-14T02:35:24;15.30;99.90
14283;DHT22;7225;59.282;18.344;2023-06-14T02:37:54;15.30;99.90
14283;DHT22;7225;59.282;18.344;2023-06-14T02:40:21;15.30;99.90
14283;DHT22;7225;59.282;18.344;2023-06-14T02:42:48;15.40;99.90
14283;DHT22;7225;59.282;18.344;2023-06-14T02:45:15;15.40;99.90
14283;DHT22;7225;59.282;18.344;2023-06-14T02:47:42;15.50;99.90
14283;DHT22;7225;59.282;18.344;2023-06-14T02:50:09;15.50;99.90
14283;DHT22;7225;59.282;18.344;2023-06-14T02:52:36;15.50;99.90
14283;DHT22;7225;59.282;18.344;2023-06-14T02:55:04;15.50;99.90
14283;DHT22;7225;59.282;18.344;2023-06-14T02:57:31;15.50;99.90
14283;DHT22;7225;59.282;18.344;2023-06-14T02:59:58;15.60;99.90
14283;DHT22;7225;59.282;18.344;2023-06-14T03:02:25;15.50;99.90
14283;DHT22;7225;59.282;18.344;2023-06-14T03:04:52;15.50;99.90
14283;DHT22;7225;59.282;18.344;2023-06-14T03:07:19;15.40;99.90
14283;DHT22;7225;59.282;18.344;2023-06-14T03:09:49;15.50;99.90
14283;DHT22;7225;59.282;18.344;2023-06-14T03:12:16;15.50;99.90
14283;DHT22;7225;59.282;18.344;2023-06-14T03:14:43;15.40;99.90
14283;DHT22;7225;59.282;18.344;2023-06-14T03:17:12;15.40;99.90
14283;DHT22;7225;59.282;18.344;2023-06-14T03:19:39;15.40;99.90
14283;DHT22;7225;59.282;18.344;2023-06-14T03:22:08;15.40;99.90
14283;DHT22;7225;59.282;18.344;2023-06-14T03:24:35;15.50;99.90
14283;DHT22;7225;59.282;18.344;2023-06-14T03:27:04;15.50;99.90
14283;DHT22;7225;59.282;18.344;2023-06-14T03:29:31;15.50;99.90
14283;DHT22;7225;59.282;18.344;2023-06-14T03:32:00;15.50;99.90
14283;DHT22;7225;59.282;18.344;2023-06-14T03:34:27;15.60;99.90
14283;DHT22;7225;59.282;18.344;2023-06-14T03:36:54;15.60;99.90
14283;DHT22;7225;59.282;18.344;2023-06-14T03:39:21;15.70;99.90
14283;DHT22;7225;59.282;18.344;2023-06-14T03:41:48;15.70;99.90
14283;DHT22;7225;59.282;18.344;2023-06-14T03:44:17;15.70;99.90
14283;DHT22;7225;59.282;18.344;2023-06-14T03:46:45;15.70;99.90
14283;DHT22;7225;59.282;18.344;2023-06-14T03:49:13;15.80;99.90
14283;DHT22;7225;59.282;18.344;2023-06-14T03:51:40;15.90;99.90
14283;DHT22;7225;59.282;18.344;2023-06-14T03:54:08;15.90;99.90
14283;DHT22;7225;59.282;18.344;2023-06-14T03:56:37;16.00;99.90
14283;DHT22;7225;59.282;18.344;2023-06-14T03:59:04;16.10;99.90
14283;DHT22;7225;59.282;18.344;2023-06-14T04:01:32;16.20;99.90
14283;DHT22;7225;59.282;18.344;2023-06-14T04:04:00;16.20;99.90
14283;DHT22;7225;59.282;18.344;2023-06-14T04:06:28;16.30;99.90
14283;DHT22;7225;59.282;18.344;2023-06-14T04:09:00;16.40;99.90
14283;DHT22;7225;59.282;18.344;2023-06-14T04:11:30;16.50;99.90
14283;DHT22;7225;59.282;18.344;2023-06-14T04:13:58;16.50;99.90
14283;DHT22;7225;59.282;18.344;2023-06-14T04:16:26;16.60;99.90
14283;DHT22;7225;59.282;18.344;2023-06-14T04:18:55;16.60;99.90
14283;DHT22;7225;59.282;18.344;2023-06-14T04:21:22;16.70;99.90
14283;DHT22;7225;59.282;18.344;2023-06-14T04:23:50;16.80;99.90
14283;DHT22;7225;59.282;18.344;2023-06-14T04:26:19;16.90;99.90
14283;DHT22;7225;59.282;18.344;2023-06-14T04:28:49;16.90;99.90
14283;DHT22;7225;59.282;18.344;2023-06-14T04:31:17;16.90;99.90
14283;DHT22;7225;59.282;18.344;2023-06-14T04:33:45;17.00;99.90
14283;DHT22;7225;59.282;18.344;2023-06-14T04:36:13;17.00;99.90
14283;DHT22;7225;59.282;18.344;2023-06-14T04:38:45;17.00;99.90
14283;DHT22;7225;59.282;18.344;2023-06-14T04:41:13;17.10;99.90
14283;DHT22;7225;59.282;18.344;2023-06-14T04:43:40;17.10;99.90
14283;DHT22;7225;59.282;18.344;2023-06-14T04:46:07;17.20;99.90
14283;DHT22;7225;59.282;18.344;2023-06-14T04:48:39;17.30;99.90
14283;DHT22;7225;59.282;18.344;2023-06-14T04:51:08;17.30;99.90
14283;DHT22;7225;59.282;18.344;2023-06-14T04:53:35;17.30;99.90
14283;DHT22;7225;59.282;18.344;2023-06-14T04:56:04;17.30;99.90
14283;DHT22;7225;59.282;18.344;2023-06-14T04:58:31;17.30;99.90
14283;DHT22;7225;59.282;18.344;2023-06-14T05:00:59;17.40;99.90
14283;DHT22;7225;59.282;18.344;2023-06-14T05:03:26;17.30;99.90
14283;DHT22;7225;59.282;18.344;2023-06-14T05:05:54;17.30;99.90
14283;DHT22;7225;59.282;18.344;2023-06-14T05:08:22;17.30;99.90
14283;DHT22;7225;59.282;18.344;2023-06-14T05:10:52;17.30;99.90
14283;DHT22;7225;59.282;18.344;2023-06-14T05:13:19;17.30;99.90
14283;DHT22;7225;59.282;18.344;2023-06-14T05:15:48;17.30;99.90
14283;DHT22;7225;59.282;18.344;2023-06-14T05:18:15;17.40;99.90
14283;DHT22;7225;59.282;18.344;2023-06-14T05:20:43;17.40;99.90
14283;DHT22;7225;59.282;18.344;2023-06-14T05:23:10;17.40;99.90
14283;DHT22;7225;59.282;18.344;2023-06-14T05:25:43;17.50;99.90
14283;DHT22;7225;59.282;18.344;2023-06-14T05:28:10;17.50;99.90
14283;DHT22;7225;59.282;18.344;2023-06-14T05:30:38;17.60;99.90
14283;DHT22;7225;59.282;18.344;2023-06-14T05:33:06;17.60;99.90
14283;DHT22;7225;59.282;18.344;2023-06-14T05:35:34;17.60;99.90
14283;DHT22;7225;59.282;18.344;2023-06-14T05:38:01;17.70;99.90
14283;DHT22;7225;59.282;18.344;2023-06-14T05:40:28;17.80;99.90
14283;DHT22;7225;59.282;18.344;2023-06-14T05:42:55;17.80;99.90
14283;DHT22;7225;59.282;18.344;2023-06-14T05:45:22;17.80;99.90
14283;DHT22;7225;59.282;18.344;2023-06-14T05:47:49;17.90;99.90
14283;DHT22;7225;59.282;18.344;2023-06-14T05:50:17;18.00;99.90
14283;DHT22;7225;59.282;18.344;2023-06-14T05:52:44;18.10;99.90
14283;DHT22;7225;59.282;18.344;2023-06-14T05:55:11;18.20;99.90
14283;DHT22;7225;59.282;18.344;2023-06-14T05:57:40;18.30;99.90
14283;DHT22;7225;59.282;18.344;2023-06-14T06:00:09;18.30;99.90
14283;DHT22;7225;59.282;18.344;2023-06-14T06:02:42;18.40;99.90
14283;DHT22;7225;59.282;18.344;2023-06-14T06:05:13;18.60;99.90
14283;DHT22;7225;59.282;18.344;2023-06-14T06:07:42;18.70;99.90
14283;DHT22;7225;59.282;18.344;2023-06-14T06:10:12;18.90;99.90
14283;DHT22;7225;59.282;18.344;2023-06-14T06:12:41;19.00;99.90
14283;DHT22;7225;59.282;18.344;2023-06-14T06:15:08;19.00;99.90
14283;DHT22;7225;59.282;18.344;2023-06-14T06:17:39;19.20;99.90
14283;DHT22;7225;59.282;18.344;2023-06-14T06:20:22;19.20;99.90
14283;DHT22;7225;59.282;18.344;2023-06-14T06:22:55;19.30;99.90
14283;DHT22;7225;59.282;18.344;2023-06-14T06:25:23;19.40;99.90
14283;DHT22;7225;59.282;18.344;2023-06-14T06:27:53;19.40;99.90
14283;DHT22;7225;59.282;18.344;2023-06-14T06:30:20;19.60;99.90
14283;DHT22;7225;59.282;18.344;2023-06-14T06:32:47;19.80;99.90
14283;DHT22;7225;59.282;18.344;2023-06-14T06:35:14;19.80;99.90
14283;DHT22;7225;59.282;18.344;2023-06-14T06:37:42;19.90;99.90
14283;DHT22;7225;59.282;18.344;2023-06-14T06:40:10;20.10;99.90
14283;DHT22;7225;59.282;18.344;2023-06-14T06:42:37;20.20;99.90
14283;DHT22;7225;59.282;18.344;2023-06-14T06:45:05;20.20;99.90
14283;DHT22;7225;59.282;18.344;2023-06-14T06:47:32;20.40;99.90
14283;DHT22;7225;59.282;18.344;2023-06-14T06:49:59;20.60;99.90
14283;DHT22;7225;59.282;18.344;2023-06-14T06:52:26;20.70;99.90
14283;DHT22;7225;59.282;18.344;2023-06-14T06:54:53;20.70;99.90
14283;DHT22;7225;59.282;18.344;2023-06-14T06:57:22;20.90;99.90
14283;DHT22;7225;59.282;18.344;2023-06-14T06:59:50;21.00;99.90
14283;DHT22;7225;59.282;18.344;2023-06-14T07:02:17;21.00;99.90
14283;DHT22;7225;59.282;18.344;2023-06-14T07:04:44;21.20;99.90
14283;DHT22;7225;59.282;18.344;2023-06-14T07:07:11;21.20;99.90
14283;DHT22;7225;59.282;18.344;2023-06-14T07:09:38;21.40;99.90
14283;DHT22;7225;59.282;18.344;2023-06-14T07:12:07;21.60;99.70
14283;DHT22;7225;59.282;18.344;2023-06-14T07:14:34;21.70;97.80
14283;DHT22;7225;59.282;18.344;2023-06-14T07:17:01;22.00;95.40
14283;DHT22;7225;59.282;18.344;2023-06-14T07:19:29;22.10;92.80
14283;DHT22;7225;59.282;18.344;2023-06-14T07:21:57;22.20;92.00
14283;DHT22;7225;59.282;18.344;2023-06-14T07:24:25;22.40;91.90
14283;DHT22;7225;59.282;18.344;2023-06-14T07:26:52;22.70;90.50
14283;DHT22;7225;59.282;18.344;2023-06-14T07:29:19;22.90;91.30
14283;DHT22;7225;59.282;18.344;2023-06-14T07:31:47;22.80;88.10
14283;DHT22;7225;59.282;18.344;2023-06-14T07:34:14;22.70;84.70
14283;DHT22;7225;59.282;18.344;2023-06-14T07:36:41;22.90;85.80
14283;DHT22;7225;59.282;18.344;2023-06-14T07:39:11;23.10;82.00
14283;DHT22;7225;59.282;18.344;2023-06-14T07:41:38;23.20;81.10
14283;DHT22;7225;59.282;18.344;2023-06-14T07:44:05;23.40;81.40
14283;DHT22;7225;59.282;18.344;2023-06-14T07:46:32;23.60;80.90
14283;DHT22;7225;59.282;18.344;2023-06-14T07:49:01;23.50;78.60
14283;DHT22;7225;59.282;18.344;2023-06-14T07:51:28;23.40;77.30
14283;DHT22;7225;59.282;18.344;2023-06-14T07:53:55;23.50;78.50
14283;DHT22;7225;59.282;18.344;2023-06-14T07:56:23;23.50;76.60
14283;DHT22;7225;59.282;18.344;2023-06-14T07:58:50;23.50;76.70
14283;DHT22;7225;59.282;18.344;2023-06-14T08:01:17;23.60;74.30
14283;DHT22;7225;59.282;18.344;2023-06-14T08:03:44;23.70;76.70
14283;DHT22;7225;59.282;18.344;2023-06-14T08:06:12;23.80;73.70
14283;DHT22;7225;59.282;18.344;2023-06-14T08:08:39;23.80;72.90
14283;DHT22;7225;59.282;18.344;2023-06-14T08:11:06;24.00;75.20
14283;DHT22;7225;59.282;18.344;2023-06-14T08:13:33;24.20;74.90
14283;DHT22;7225;59.282;18.344;2023-06-14T08:16:00;24.50;74.20
14283;DHT22;7225;59.282;18.344;2023-06-14T08:18:28;24.70;72.60
14283;DHT22;7225;59.282;18.344;2023-06-14T08:20:57;25.00;73.60
14283;DHT22;7225;59.282;18.344;2023-06-14T08:23:24;25.30;76.70
14283;DHT22;7225;59.282;18.344;2023-06-14T08:25:51;25.50;77.30
14283;DHT22;7225;59.282;18.344;2023-06-14T08:28:18;25.70;77.50
14283;DHT22;7225;59.282;18.344;2023-06-14T08:30:45;25.90;77.10
14283;DHT22;7225;59.282;18.344;2023-06-14T08:33:12;26.00;75.00
14283;DHT22;7225;59.282;18.344;2023-06-14T08:35:43;26.20;76.00
14283;DHT22;7225;59.282;18.344;2023-06-14T08:38:11;26.40;75.30
14283;DHT22;7225;59.282;18.344;2023-06-14T08:40:40;26.60;74.50
14283;DHT22;7225;59.282;18.344;2023-06-14T08:43:08;26.80;74.50
14283;DHT22;7225;59.282;18.344;2023-06-14T08:45:35;26.70;70.90
14283;DHT22;7225;59.282;18.344;2023-06-14T08:48:02;26.90;71.60
14283;DHT22;7225;59.282;18.344;2023-06-14T08:50:31;27.10;72.60
14283;DHT22;7225;59.282;18.344;2023-06-14T08:53:01;27.20;73.50
14283;DHT22;7225;59.282;18.344;2023-06-14T08:55:30;27.30;73.00
14283;DHT22;7225;59.282;18.344;2023-06-14T08:58:02;27.50;72.80
14283;DHT22;7225;59.282;18.344;2023-06-14T09:00:30;27.60;72.80
14283;DHT22;7225;59.282;18.344;2023-06-14T09:03:00;27.90;73.10
14283;DHT22;7225;59.282;18.344;2023-06-14T09:05:28;27.90;73.00
14283;DHT22;7225;59.282;18.344;2023-06-14T09:07:55;27.90;69.70
14283;DHT22;7225;59.282;18.344;2023-06-14T09:10:32;27.90;69.90
14283;DHT22;7225;59.282;18.344;2023-06-14T09:13:05;27.90;71.00
14283;DHT22;7225;59.282;18.344;2023-06-14T09:15:33;28.00;72.80
14283;DHT22;7225;59.282;18.344;2023-06-14T09:18:03;28.10;71.90
14283;DHT22;7225;59.282;18.344;2023-06-14T09:20:31;28.30;71.60
14283;DHT22;7225;59.282;18.344;2023-06-14T09:23:00;28.40;70.90
14283;DHT22;7225;59.282;18.344;2023-06-14T09:25:27;28.50;70.10
14283;DHT22;7225;59.282;18.344;2023-06-14T09:28:08;28.60;70.10
14283;DHT22;7225;59.282;18.344;2023-06-14T09:30:39;28.60;70.20
14283;DHT22;7225;59.282;18.344;2023-06-14T09:33:07;28.90;71.90
14283;DHT22;7225;59.282;18.344;2023-06-14T09:35:35;28.90;71.00
14283;DHT22;7225;59.282;18.344;2023-06-14T09:38:03;29.10;70.00
14283;DHT22;7225;59.282;18.344;2023-06-14T09:40:34;29.10;68.50
14283;DHT22;7225;59.282;18.344;2023-06-14T09:43:06;29.30;69.40
14283;DHT22;7225;59.282;18.344;2023-06-14T09:45:36;29.40;68.30
14283;DHT22;7225;59.282;18.344;2023-06-14T09:48:03;29.40;68.70
14283;DHT22;7225;59.282;18.344;2023-06-14T09:50:35;29.50;68.40
14283;DHT22;7225;59.282;18.344;2023-06-14T09:53:11;29.60;68.30
14283;DHT22;7225;59.282;18.344;2023-06-14T09:55:41;29.70;67.50
14283;DHT22;7225;59.282;18.344;2023-06-14T09:58:10;29.60;65.70
14283;DHT22;7225;59.282;18.344;2023-06-14T10:00:39;29.60;66.70
14283;DHT22;7225;59.282;18.344;2023-06-14T10:03:16;29.60;66.10
14283;DHT22;7225;59.282;18.344;2023-06-14T10:05:47;29.70;64.70
14283;DHT22;7225;59.282;18.344;2023-06-14T10:08:19;29.90;65.50
14283;DHT22;7225;59.282;18.344;2023-06-14T10:10:50;29.80;65.40
14283;DHT22;7225;59.282;18.344;2023-06-14T10:13:18;29.90;64.20
14283;DHT22;7225;59.282;18.344;2023-06-14T10:15:53;30.00;62.90
14283;DHT22;7225;59.282;18.344;2023-06-14T10:23:40;29.90;60.00
14283;DHT22;7225;59.282;18.344;2023-06-14T10:26:08;30.00;58.80
14283;DHT22;7225;59.282;18.344;2023-06-14T10:28:58;29.80;58.40
14283;DHT22;7225;59.282;18.344;2023-06-14T10:34:33;29.90;58.70
14283;DHT22;7225;59.282;18.344;2023-06-14T10:37:08;29.90;55.90
14283;DHT22;7225;59.282;18.344;2023-06-14T10:39:42;29.10;58.40
14283;DHT22;7225;59.282;18.344;2023-06-14T10:42:10;29.20;59.00
14283;DHT22;7225;59.282;18.344;2023-06-14T10:44:38;29.50;58.50
14283;DHT22;7225;59.282;18.344;2023-06-14T10:47:25;29.80;58.10
14283;DHT22;7225;59.282;18.344;2023-06-14T10:50:12;29.70;57.80
14283;DHT22;7225;59.282;18.344;2023-06-14T10:52:42;30.10;57.50
14283;DHT22;7225;59.282;18.344;2023-06-14T10:55:19;29.50;55.00
14283;DHT22;7225;59.282;18.344;2023-06-14T10:57:54;29.40;58.10
14283;DHT22;7225;59.282;18.344;2023-06-14T11:00:27;29.50;58.30
14283;DHT22;7225;59.282;18.344;2023-06-14T11:05:55;29.90;58.20
14283;DHT22;7225;59.282;18.344;2023-06-14T11:11:06;30.20;57.70
14283;DHT22;7225;59.282;18.344;2023-06-14T11:13:42;30.10;58.00
14283;DHT22;7225;59.282;18.344;2023-06-14T11:16:14;30.00;58.10
14283;DHT22;7225;59.282;18.344;2023-06-14T11:18:42;29.90;57.00
14283;DHT22;7225;59.282;18.344;2023-06-14T11:21:10;29.60;58.20
14283;DHT22;7225;59.282;18.344;2023-06-14T11:23:37;29.60;58.50
14283;DHT22;7225;59.282;18.344;2023-06-14T11:26:04;29.70;58.20
14283;DHT22;7225;59.282;18.344;2023-06-14T11:28:39;29.90;59.00
14283;DHT22;7225;59.282;18.344;2023-06-14T11:31:07;30.00;58.30
14283;DHT22;7225;59.282;18.344;2023-06-14T11:33:34;30.30;58.90
14283;DHT22;7225;59.282;18.344;2023-06-14T11:36:03;30.50;58.70
14283;DHT22;7225;59.282;18.344;2023-06-14T11:38:35;30.60;58.60
14283;DHT22;7225;59.282;18.344;2023-06-14T11:41:03;30.60;58.10
14283;DHT22;7225;59.282;18.344;2023-06-14T11:43:30;30.70;58.40
14283;DHT22;7225;59.282;18.344;2023-06-14T11:46:02;30.80;57.80
14283;DHT22;7225;59.282;18.344;2023-06-14T11:48:44;31.10;58.40
14283;DHT22;7225;59.282;18.344;2023-06-14T11:51:11;31.30;56.10
14283;DHT22;7225;59.282;18.344;2023-06-14T11:53:39;31.40;57.50
14283;DHT22;7225;59.282;18.344;2023-06-14T11:56:06;31.30;57.00
14283;DHT22;7225;59.282;18.344;2023-06-14T11:58:33;31.30;54.90
14283;DHT22;7225;59.282;18.344;2023-06-14T12:01:03;31.20;55.50
14283;DHT22;7225;59.282;18.344;2023-06-14T12:03:30;31.20;55.30
14283;DHT22;7225;59.282;18.344;2023-06-14T12:06:08;31.40;56.00
14283;DHT22;7225;59.282;18.344;2023-06-14T12:08:38;31.40;56.70
14283;DHT22;7225;59.282;18.344;2023-06-14T12:11:14;31.40;56.60
14283;DHT22;7225;59.282;18.344;2023-06-14T12:13:42;31.50;55.80
14283;DHT22;7225;59.282;18.344;2023-06-14T12:16:11;31.60;56.20
14283;DHT22;7225;59.282;18.344;2023-06-14T12:18:39;31.50;54.70
14283;DHT22;7225;59.282;18.344;2023-06-14T12:21:09;31.50;55.20
14283;DHT22;7225;59.282;18.344;2023-06-14T12:23:47;31.30;54.40
14283;DHT22;7225;59.282;18.344;2023-06-14T12:26:18;31.40;55.20
14283;DHT22;7225;59.282;18.344;2023-06-14T12:28:47;31.50;55.30
14283;DHT22;7225;59.282;18.344;2023-06-14T12:31:15;31.50;55.40
14283;DHT22;7225;59.282;18.344;2023-06-14T12:33:43;31.70;55.70
14283;DHT22;7225;59.282;18.344;2023-06-14T12:36:12;31.70;54.60
14283;DHT22;7225;59.282;18.344;2023-06-14T12:38:41;31.70;55.00
14283;DHT22;7225;59.282;18.344;2023-06-14T12:41:08;31.90;54.50
14283;DHT22;7225;59.282;18.344;2023-06-14T12:43:35;31.90;54.20
14283;DHT22;7225;59.282;18.344;2023-06-14T12:46:02;31.90;55.10
14283;DHT22;7225;59.282;18.344;2023-06-14T12:48:29;31.80;55.20
14283;DHT22;7225;59.282;18.344;2023-06-14T12:50:58;31.60;54.90
14283;DHT22;7225;59.282;18.344;2023-06-14T12:53:25;31.30;54.80
14283;DHT22;7225;59.282;18.344;2023-06-14T12:55:52;31.30;55.30
14283;DHT22;7225;59.282;18.344;2023-06-14T12:58:19;31.10;55.80
14283;DHT22;7225;59.282;18.344;2023-06-14T13:00:50;30.50;54.90
14283;DHT22;7225;59.282;18.344;2023-06-14T13:03:17;30.40;56.50
14283;DHT22;7225;59.282;18.344;2023-06-14T13:05:45;29.90;56.10
14283;DHT22;7225;59.282;18.344;2023-06-14T13:08:12;29.80;58.00
14283;DHT22;7225;59.282;18.344;2023-06-14T13:10:39;29.30;57.50
14283;DHT22;7225;59.282;18.344;2023-06-14T13:13:06;28.90;58.20
14283;DHT22;7225;59.282;18.344;2023-06-14T13:15:34;28.50;59.50
14283;DHT22;7225;59.282;18.344;2023-06-14T13:18:02;28.40;59.50
14283;DHT22;7225;59.282;18.344;2023-06-14T13:20:30;28.40;61.60
14283;DHT22;7225;59.282;18.344;2023-06-14T13:22:57;28.10;60.80
14283;DHT22;7225;59.282;18.344;2023-06-14T13:25:24;28.40;61.80
14283;DHT22;7225;59.282;18.344;2023-06-14T13:27:51;28.60;61.20
14283;DHT22;7225;59.282;18.344;2023-06-14T13:30:18;28.50;61.40
14283;DHT22;7225;59.282;18.344;2023-06-14T13:32:46;28.40;61.70
14283;DHT22;7225;59.282;18.344;2023-06-14T13:35:16;28.30;61.40
14283;DHT22;7225;59.282;18.344;2023-06-14T13:37:44;27.50;62.70
14283;DHT22;7225;59.282;18.344;2023-06-14T13:40:11;27.70;63.70
14283;DHT22;7225;59.282;18.344;2023-06-14T13:42:39;27.90;63.30
14283;DHT22;7225;59.282;18.344;2023-06-14T13:45:08;27.60;63.50
14283;DHT22;7225;59.282;18.344;2023-06-14T13:47:35;27.80;64.20
14283;DHT22;7225;59.282;18.344;2023-06-14T13:50:03;27.50;64.80
14283;DHT22;7225;59.282;18.344;2023-06-14T13:52:31;27.20;65.30
14283;DHT22;7225;59.282;18.344;2023-06-14T13:54:57;26.90;64.20
14283;DHT22;7225;59.282;18.344;2023-06-14T13:57:24;26.90;65.90
14283;DHT22;7225;59.282;18.344;2023-06-14T13:59:52;27.00;64.40
14283;DHT22;7225;59.282;18.344;2023-06-14T14:02:22;27.00;64.10
14283;DHT22;7225;59.282;18.344;2023-06-14T14:04:49;27.00;65.30
14283;DHT22;7225;59.282;18.344;2023-06-14T14:07:20;27.40;64.20
14283;DHT22;7225;59.282;18.344;2023-06-14T14:09:47;27.60;65.10
14283;DHT22;7225;59.282;18.344;2023-06-14T14:12:14;27.70;63.50
14283;DHT22;7225;59.282;18.344;2023-06-14T14:14:41;27.60;63.70
14283;DHT22;7225;59.282;18.344;2023-06-14T14:17:09;26.90;63.00
14283;DHT22;7225;59.282;18.344;2023-06-14T14:19:36;26.70;64.40
14283;DHT22;7225;59.282;18.344;2023-06-14T14:22:03;26.60;64.30
14283;DHT22;7225;59.282;18.344;2023-06-14T14:24:30;26.50;64.30
14283;DHT22;7225;59.282;18.344;2023-06-14T14:26:57;26.90;64.10
14283;DHT22;7225;59.282;18.344;2023-06-14T14:29:28;27.00;63.00
14283;DHT22;7225;59.282;18.344;2023-06-14T14:31:58;26.70;62.40
14283;DHT22;7225;59.282;18.344;2023-06-14T14:34:25;26.50;62.80
14283;DHT22;7225;59.282;18.344;2023-06-14T14:36:53;26.10;61.50
14283;DHT22;7225;59.282;18.344;2023-06-14T14:39:20;26.30;62.70
14283;DHT22;7225;59.282;18.344;2023-06-14T14:41:47;26.10;62.60
14283;DHT22;7225;59.282;18.344;2023-06-14T14:44:14;26.00;61.90
14283;DHT22;7225;59.282;18.344;2023-06-14T14:46:41;26.20;61.50
14283;DHT22;7225;59.282;18.344;2023-06-14T14:49:08;26.10;61.00
14283;DHT22;7225;59.282;18.344;2023-06-14T14:51:35;25.90;61.10
14283;DHT22;7225;59.282;18.344;2023-06-14T14:54:05;26.10;61.70
14283;DHT22;7225;59.282;18.344;2023-06-14T14:56:32;25.90;62.10
14283;DHT22;7225;59.282;18.344;2023-06-14T14:58:59;26.00;61.70
14283;DHT22;7225;59.282;18.344;2023-06-14T15:01:26;26.10;61.50
14283;DHT22;7225;59.282;18.344;2023-06-14T15:03:53;26.00;61.20
14283;DHT22;7225;59.282;18.344;2023-06-14T15:06:26;26.10;61.60
14283;DHT22;7225;59.282;18.344;2023-06-14T15:08:53;25.90;61.80
14283;DHT22;7225;59.282;18.344;2023-06-14T15:11:20;26.20;61.70
14283;DHT22;7225;59.282;18.344;2023-06-14T15:13:47;26.00;61.40
14283;DHT22;7225;59.282;18.344;2023-06-14T15:16:15;25.70;60.80
14283;DHT22;7225;59.282;18.344;2023-06-14T15:18:42;25.70;61.40
14283;DHT22;7225;59.282;18.344;2023-06-14T15:21:09;25.60;61.90
14283;DHT22;7225;59.282;18.344;2023-06-14T15:23:36;25.50;61.70
14283;DHT22;7225;59.282;18.344;2023-06-14T15:26:04;25.40;61.70
14283;DHT22;7225;59.282;18.344;2023-06-14T15:28:31;25.50;62.00
14283;DHT22;7225;59.282;18.344;2023-06-14T15:31:00;25.20;61.90
14283;DHT22;7225;59.282;18.344;2023-06-14T15:33:27;25.10;62.40
14283;DHT22;7225;59.282;18.344;2023-06-14T15:35:54;24.80;62.50
14283;DHT22;7225;59.282;18.344;2023-06-14T15:38:22;24.80;62.50
14283;DHT22;7225;59.282;18.344;2023-06-14T15:40:49;24.80;63.20
14283;DHT22;7225;59.282;18.344;2023-06-14T15:43:18;24.70;63.50
14283;DHT22;7225;59.282;18.344;2023-06-14T15:45:45;24.90;63.50
14283;DHT22;7225;59.282;18.344;2023-06-14T15:48:12;24.90;63.90
14283;DHT22;7225;59.282;18.344;2023-06-14T15:50:39;24.80;63.60
14283;DHT22;7225;59.282;18.344;2023-06-14T15:53:06;24.90;63.80